Time;durP1;ratioP1;P1;durP2;ratioP2;P2;SDS_P1;SDS_P2;PMS_P1;PMS_P2;Temp;Humidity;BMP_temperature;BMP_pressure;BME280_temperature;BME280_humidity;BME280_pressure;Samples;Min_cycle;Max_cycle;Signal;HPM_P1;HPM_P2
2022/06/14 00:02:52;;;;;;;12.70;4.28;;;;;;;;;;5033420;28;20045;-68
2022/06/14 00:05:18;;;;;;;12.98;4.43;;;;;;;;;;5034372;28;20175;-68
2022/06/14 00:07:44;;;;;;;9.60;4.20;;;;;;;;;;5052476;28;20494;-68
2022/06/14 00:10:10;;;;;;;8.52;3.78;;;;;;;;;;5052648;28;20064;-68
2022/06/14 00:12:36;;;;;;;13.43;3.85;;;;;;;;;;5050866;28;20049;-68
2022/06/14 00:15:02;;;;;;;8.13;4.03;;;;;;;;;;5050495;28;20135;-68
2022/06/14 00:17:28;;;;;;;9.00;4.03;;;;;;;;;;5050993;28;20091;-68
2022/06/14 00:19:54;;;;;;;11.57;4.22;;;;;;;;;;5050771;28;20493;-68
2022/06/14 00:22:20;;;;;;;13.50;4.57;;;;;;;;;;5033250;28;20037;-68
2022/06/14 00:24:46;;;;;;;10.38;4.40;;;;;;;;;;5032887;28;20052;-68
2022/06/14 00:27:12;;;;;;;22.23;5.97;;;;;;;;;;5033605;28;20141;-68
2022/06/14 00:29:38;;;;;;;14.88;4.45;;;;;;;;;;5031742;28;20053;-68
2022/06/14 00:32:04;;;;;;;13.25;5.13;;;;;;;;;;5033201;28;20118;-68
2022/06/14 00:34:30;;;;;;;15.77;5.32;;;;;;;;;;5050395;28;20041;-68
2022/06/14 00:36:56;;;;;;;12.80;4.60;;;;;;;;;;5032674;28;20556;-68
2022/06/14 00:39:23;;;;;;;16.27;4.72;;;;;;;;;;5033076;28;20053;-68
2022/06/14 00:41:51;;;;;;;14.25;4.65;;;;;;;;;;5050445;28;20049;-69
2022/06/14 00:44:19;;;;;;;11.45;4.40;;;;;;;;;;5032356;28;20084;-68
2022/06/14 00:47:03;;;;;;;12.02;4.15;;;;;;;;;;5050267;28;20060;-68
2022/06/14 00:49:38;;;;;;;10.80;3.97;;;;;;;;;;5050061;28;20406;-68
2022/06/14 00:52:12;;;;;;;13.13;5.05;;;;;;;;;;5045286;28;20481;-68
2022/06/14 00:54:39;;;;;;;16.30;4.97;;;;;;;;;;5069288;28;20120;-68
2022/06/14 00:57:05;;;;;;;15.60;4.82;;;;;;;;;;5056083;28;20051;-68
2022/06/14 00:59:38;;;;;;;11.38;4.32;;;;;;;;;;5049761;28;20044;-69
2022/06/14 01:02:12;;;;;;;9.90;3.72;;;;;;;;;;5032242;28;20098;-69
2022/06/14 01:04:38;;;;;;;12.35;4.88;;;;;;;;;;5032404;28;20052;-67
2022/06/14 01:07:07;;;;;;;10.95;5.10;;;;;;;;;;5031468;28;20053;-68
2022/06/14 01:09:36;;;;;;;18.55;5.30;;;;;;;;;;5049804;28;20048;-68
2022/06/14 01:12:09;;;;;;;11.10;4.70;;;;;;;;;;5031706;28;20044;-67
2022/06/14 01:14:48;;;;;;;14.07;6.28;;;;;;;;;;5049766;28;20105;-67
2022/06/14 01:17:15;;;;;;;14.80;4.82;;;;;;;;;;5032298;28;20523;-68
2022/06/14 01:19:41;;;;;;;13.68;4.88;;;;;;;;;;5032103;28;20453;-68
2022/06/14 01:22:07;;;;;;;12.60;4.00;;;;;;;;;;5032301;28;20053;-67
2022/06/14 01:24:35;;;;;;;9.40;4.25;;;;;;;;;;5049583;28;20498;-68
2022/06/14 01:27:01;;;;;;;11.52;4.88;;;;;;;;;;5049189;28;20140;-67
2022/06/14 01:29:29;;;;;;;10.10;4.72;;;;;;;;;;5031512;28;20061;-68
2022/06/14 01:31:59;;;;;;;12.93;5.37;;;;;;;;;;5050277;28;20053;-68
2022/06/14 01:34:25;;;;;;;16.85;4.80;;;;;;;;;;5049843;28;20333;-67
2022/06/14 01:36:51;;;;;;;13.35;5.57;;;;;;;;;;5049770;28;20432;-68
2022/06/14 01:39:18;;;;;;;10.27;4.50;;;;;;;;;;5049625;28;20474;-68
2022/06/14 01:41:50;;;;;;;14.15;5.32;;;;;;;;;;5048945;28;20045;-68
2022/06/14 01:44:16;;;;;;;15.13;6.22;;;;;;;;;;5049597;28;20072;-68
2022/06/14 01:46:49;;;;;;;16.33;4.95;;;;;;;;;;5015048;28;20469;-67
2022/06/14 01:52:26;;;;;;;11.82;4.35;;;;;;;;;;5066741;28;20052;-68
2022/06/14 01:54:52;;;;;;;12.63;4.68;;;;;;;;;;5068886;28;20041;-68
2022/06/14 01:57:27;;;;;;;10.35;4.32;;;;;;;;;;5050378;28;20040;-68
2022/06/14 01:59:59;;;;;;;11.85;4.95;;;;;;;;;;5051039;28;20052;-68
2022/06/14 02:02:28;;;;;;;13.32;4.07;;;;;;;;;;5034097;28;20048;-68
2022/06/14 02:05:03;;;;;;;13.27;4.90;;;;;;;;;;5049597;28;20049;-68
2022/06/14 02:07:38;;;;;;;14.93;5.32;;;;;;;;;;5049468;28;20049;-68
2022/06/14 02:10:15;;;;;;;13.07;4.72;;;;;;;;;;5031042;28;20123;-68
2022/06/14 02:12:56;;;;;;;13.35;5.20;;;;;;;;;;5014751;28;20142;-68
2022/06/14 02:15:29;;;;;;;13.88;5.47;;;;;;;;;;5031867;28;20496;-68
2022/06/14 02:17:58;;;;;;;11.93;4.93;;;;;;;;;;5032582;28;20083;-68
2022/06/14 02:20:26;;;;;;;12.45;5.10;;;;;;;;;;5041970;28;20084;-68
2022/06/14 02:22:59;;;;;;;15.63;4.87;;;;;;;;;;5072708;28;20048;-68
2022/06/14 02:25:28;;;;;;;9.98;4.45;;;;;;;;;;5054164;28;20648;-68
2022/06/14 02:28:01;;;;;;;14.05;5.28;;;;;;;;;;5072238;28;20067;-68
2022/06/14 02:30:35;;;;;;;9.55;4.60;;;;;;;;;;5053953;28;20105;-68
2022/06/14 02:33:20;;;;;;;18.55;6.22;;;;;;;;;;5054367;28;20051;-68
2022/06/14 02:35:52;;;;;;;16.98;6.65;;;;;;;;;;5054061;28;20084;-68
2022/06/14 02:38:22;;;;;;;12.50;5.45;;;;;;;;;;5054479;28;20044;-68
2022/06/14 02:40:53;;;;;;;19.40;6.22;;;;;;;;;;5053328;28;20048;-68
2022/06/14 02:43:25;;;;;;;21.92;6.05;;;;;;;;;;5072047;28;20563;-67
2022/06/14 02:45:53;;;;;;;15.93;5.70;;;;;;;;;;5072233;28;20086;-68
2022/06/14 02:48:39;;;;;;;14.57;6.35;;;;;;;;;;5053729;28;20477;-67
2022/06/14 02:51:12;;;;;;;18.75;6.72;;;;;;;;;;5053711;28;20074;-67
2022/06/14 02:53:42;;;;;;;18.35;7.05;;;;;;;;;;5071222;28;20045;-67
2022/06/14 02:56:15;;;;;;;19.70;6.45;;;;;;;;;;5071702;28;20041;-67
2022/06/14 02:58:49;;;;;;;21.85;6.32;;;;;;;;;;5053551;28;20127;-68
2022/06/14 03:01:18;;;;;;;16.50;7.18;;;;;;;;;;5040865;28;20135;-68
2022/06/14 03:03:50;;;;;;;30.70;7.88;;;;;;;;;;5052220;28;20072;-68
2022/06/14 03:06:18;;;;;;;30.75;9.45;;;;;;;;;;5052354;28;20454;-69
2022/06/14 03:08:54;;;;;;;22.23;8.13;;;;;;;;;;5033694;28;20080;-68
2022/06/14 03:11:27;;;;;;;23.05;8.75;;;;;;;;;;5052202;28;20072;-68
2022/06/14 03:14:02;;;;;;;17.65;7.25;;;;;;;;;;5052520;28;20154;-68
2022/06/14 03:16:28;;;;;;;19.27;8.23;;;;;;;;;;5052068;28;20037;-68
2022/06/14 03:19:10;;;;;;;19.73;7.68;;;;;;;;;;5034365;28;20508;-68
2022/06/14 03:21:40;;;;;;;16.73;7.80;;;;;;;;;;5034664;28;20520;-68
2022/06/14 03:24:06;;;;;;;16.10;7.53;;;;;;;;;;5052906;28;20045;-68
2022/06/14 03:26:46;;;;;;;14.57;7.18;;;;;;;;;;5052848;28;20049;-68
2022/06/14 03:29:15;;;;;;;19.17;6.88;;;;;;;;;;5064753;28;20132;-67
2022/06/14 03:31:48;;;;;;;22.95;7.55;;;;;;;;;;5053040;28;20473;-68
2022/06/14 03:34:14;;;;;;;18.08;7.32;;;;;;;;;;5052887;28;20396;-68
2022/06/14 03:36:41;;;;;;;20.40;8.27;;;;;;;;;;5051520;28;20539;-68
2022/06/14 03:39:12;;;;;;;18.25;7.65;;;;;;;;;;5065431;28;20499;-67
2022/06/14 03:41:39;;;;;;;27.92;7.80;;;;;;;;;;5072348;28;20447;-67
2022/06/14 03:44:06;;;;;;;35.60;10.05;;;;;;;;;;5053218;28;20048;-68
2022/06/14 03:46:32;;;;;;;17.50;6.82;;;;;;;;;;5052387;28;20158;-68
2022/06/14 03:49:02;;;;;;;57.05;16.73;;;;;;;;;;5052944;28;20447;-68
2022/06/14 03:51:46;;;;;;;19.25;7.60;;;;;;;;;;5050913;28;20052;-68
2022/06/14 03:54:23;;;;;;;40.67;11.93;;;;;;;;;;5033595;28;20128;-68
2022/06/14 03:56:49;;;;;;;22.92;8.73;;;;;;;;;;5033658;28;20060;-68
2022/06/14 03:59:27;;;;;;;30.48;9.15;;;;;;;;;;5033892;28;20450;-68
2022/06/14 04:02:15;;;;;;;22.67;7.55;;;;;;;;;;5017485;28;20405;-68
2022/06/14 04:04:47;;;;;;;18.40;7.70;;;;;;;;;;5047513;28;20480;-68
2022/06/14 04:07:25;;;;;;;14.13;6.55;;;;;;;;;;5069818;28;20048;-68
2022/06/14 04:10:05;;;;;;;25.98;8.40;;;;;;;;;;5052442;28;20048;-68
2022/06/14 04:12:32;;;;;;;25.13;7.80;;;;;;;;;;5052238;28;20048;-68
2022/06/14 04:15:01;;;;;;;33.42;9.50;;;;;;;;;;5070398;28;20463;-68
2022/06/14 04:17:27;;;;;;;;;;;;;;;;;;5070433;28;20045;-68
2022/06/14 04:20:12;;;;;;;53.78;14.88;;;;;;;;;;5070217;28;19931;-68
2022/06/14 04:22:57;;;;;;;35.83;10.85;;;;;;;;;;5069692;28;20484;-68
2022/06/14 04:25:39;;;;;;;14.98;6.25;;;;;;;;;;5070207;28;20139;-67
2022/06/14 04:28:24;;;;;;;21.73;7.68;;;;;;;;;;5070090;28;20064;-67
2022/06/14 04:30:57;;;;;;;17.88;6.43;;;;;;;;;;5069939;28;20119;-67
2022/06/14 04:33:35;;;;;;;16.98;7.03;;;;;;;;;;5069956;28;20438;-67
2022/06/14 04:36:09;;;;;;;56.72;17.33;;;;;;;;;;5069560;28;20177;-68
2022/06/14 04:38:38;;;;;;;18.42;8.80;;;;;;;;;;5051451;28;20098;-68
2022/06/14 04:41:07;;;;;;;17.55;7.63;;;;;;;;;;5069674;28;20051;-68
2022/06/14 04:43:36;;;;;;;14.57;7.03;;;;;;;;;;5069454;28;20060;-68
2022/06/14 04:46:11;;;;;;;14.40;7.13;;;;;;;;;;5069770;28;20049;-68
2022/06/14 04:48:37;;;;;;;52.30;15.30;;;;;;;;;;5069381;28;20057;-68
2022/06/14 04:51:07;;;;;;;67.70;23.20;;;;;;;;;;5051146;28;20056;-68
2022/06/14 04:53:38;;;;;;;30.63;10.60;;;;;;;;;;5051364;28;20044;-68
2022/06/14 04:56:17;;;;;;;18.60;7.28;;;;;;;;;;5069629;28;20443;-68
2022/06/14 04:58:47;;;;;;;14.35;6.90;;;;;;;;;;5069344;28;20374;-68
2022/06/14 05:01:19;;;;;;;40.33;13.10;;;;;;;;;;5051794;28;20056;-68
2022/06/14 05:03:55;;;;;;;28.98;8.80;;;;;;;;;;5051423;28;20044;-68
2022/06/14 05:06:26;;;;;;;23.02;8.40;;;;;;;;;;5036080;28;20053;-68
2022/06/14 05:09:00;;;;;;;13.80;6.50;;;;;;;;;;5061963;28;20055;-67
2022/06/14 05:11:38;;;;;;;17.38;7.50;;;;;;;;;;5056778;28;20453;-67
2022/06/14 05:14:08;;;;;;;20.98;7.53;;;;;;;;;;5064747;28;20475;-68
2022/06/14 05:16:36;;;;;;;22.65;8.10;;;;;;;;;;5069342;28;20094;-68
2022/06/14 05:19:21;;;;;;;21.42;7.57;;;;;;;;;;5068993;28;20102;-68
2022/06/14 05:21:56;;;;;;;14.52;7.45;;;;;;;;;;5069029;28;20048;-68
2022/06/14 05:24:22;;;;;;;20.25;8.52;;;;;;;;;;5051319;28;20076;-68
2022/06/14 05:26:57;;;;;;;12.82;7.25;;;;;;;;;;5068740;28;20479;-68
2022/06/14 05:29:25;;;;;;;17.70;7.55;;;;;;;;;;5047661;28;20056;-69
2022/06/14 05:32:09;;;;;;;16.77;8.20;;;;;;;;;;5049214;28;20052;-68
2022/06/14 05:34:41;;;;;;;15.45;6.82;;;;;;;;;;5046825;28;20041;-68
2022/06/14 05:37:16;;;;;;;22.08;7.80;;;;;;;;;;5031405;28;20057;-69
2022/06/14 05:39:56;;;;;;;17.05;7.10;;;;;;;;;;5048827;28;20045;-69
2022/06/14 05:42:23;;;;;;;18.75;8.00;;;;;;;;;;5031038;28;20044;-69
2022/06/14 05:44:54;;;;;;;19.00;7.68;;;;;;;;;;5037462;28;20045;-68
2022/06/14 05:47:23;;;;;;;13.50;6.70;;;;;;;;;;5028297;28;20053;-67
2022/06/14 05:49:55;;;;;;;28.05;9.10;;;;;;;;;;5027773;28;20133;-68
2022/06/14 05:52:26;;;;;;;20.08;6.80;;;;;;;;;;5027903;28;20049;-68
2022/06/14 05:54:56;;;;;;;16.45;7.00;;;;;;;;;;5029704;28;20048;-68
2022/06/14 05:57:25;;;;;;;23.30;6.80;;;;;;;;;;5041711;28;20124;-68
2022/06/14 05:59:51;;;;;;;;;;;;;;;;;;5047900;28;20095;-68
2022/06/14 06:02:20;;;;;;;14.35;6.05;;;;;;;;;;5047723;28;19920;-68
2022/06/14 06:04:46;;;;;;;;;;;;;;;;;;5047501;28;20045;-68
2022/06/14 06:07:16;;;;;;;18.05;5.93;;;;;;;;;;5034980;28;20372;-68
2022/06/14 06:09:47;;;;;;;16.75;6.00;;;;;;;;;;5048118;28;20053;-68
2022/06/14 06:12:26;;;;;;;19.40;6.43;;;;;;;;;;5048698;28;20041;-68
2022/06/14 06:15:00;;;;;;;11.50;4.63;;;;;;;;;;5047365;28;20132;-69
2022/06/14 06:17:39;;;;;;;20.20;6.53;;;;;;;;;;5044625;28;20051;-69
2022/06/14 06:20:06;;;;;;;12.10;4.43;;;;;;;;;;5048853;28;20405;-69
2022/06/14 06:22:35;;;;;;;14.93;5.07;;;;;;;;;;5037448;28;20045;-68
2022/06/14 06:25:03;;;;;;;14.68;4.88;;;;;;;;;;5029625;28;20429;-68
2022/06/14 06:27:32;;;;;;;15.57;4.70;;;;;;;;;;5034805;28;20187;-68
2022/06/14 06:30:05;;;;;;;12.25;4.13;;;;;;;;;;5049329;28;20088;-69
2022/06/14 06:32:31;;;;;;;15.23;4.07;;;;;;;;;;5048697;28;20041;-68
2022/06/14 06:34:58;;;;;;;15.25;4.93;;;;;;;;;;5049145;28;20049;-69
2022/06/14 06:37:27;;;;;;;12.50;4.55;;;;;;;;;;5050392;28;20059;-69
2022/06/14 06:39:53;;;;;;;11.32;3.85;;;;;;;;;;5032309;28;20566;-69
2022/06/14 06:42:30;;;;;;;21.73;5.43;;;;;;;;;;5049491;28;20096;-69
2022/06/14 06:45:03;;;;;;;17.13;4.45;;;;;;;;;;5062520;28;20056;-67
2022/06/14 06:47:47;;;;;;;14.63;4.50;;;;;;;;;;5068111;28;20059;-68
2022/06/14 06:50:19;;;;;;;13.00;4.30;;;;;;;;;;5052501;28;20049;-68
2022/06/14 06:52:49;;;;;;;21.17;5.00;;;;;;;;;;5055721;28;20401;-68
2022/06/14 06:55:18;;;;;;;14.52;5.10;;;;;;;;;;5071973;28;20056;-67
2022/06/14 06:57:46;;;;;;;9.80;4.30;;;;;;;;;;5052740;28;20052;-68
2022/06/14 07:00:14;;;;;;;12.77;4.10;;;;;;;;;;5051295;28;20049;-68
2022/06/14 07:02:58;;;;;;;11.88;3.88;;;;;;;;;;5059866;28;20489;-68
2022/06/14 07:05:24;;;;;;;8.18;3.30;;;;;;;;;;5052947;28;20161;-67
2022/06/14 07:07:56;;;;;;;10.00;3.30;;;;;;;;;;5057089;28;20048;-68
2022/06/14 07:10:35;;;;;;;15.43;5.00;;;;;;;;;;5067833;28;20463;-67
2022/06/14 07:13:10;;;;;;;19.63;4.75;;;;;;;;;;5043383;28;20052;-69
2022/06/14 07:15:36;;;;;;;12.30;4.72;;;;;;;;;;5044288;28;20560;-68
2022/06/14 07:18:10;;;;;;;10.65;3.55;;;;;;;;;;5064194;28;20151;-68
2022/06/14 07:20:52;;;;;;;10.15;3.30;;;;;;;;;;5040435;28;20499;-67
2022/06/14 07:23:21;;;;;;;9.07;3.03;;;;;;;;;;5053790;28;20048;-68
2022/06/14 07:26:23;;;;;;;11.27;2.85;;;;;;;;;;5058520;28;20044;-68
2022/06/14 07:29:04;;;;;;;8.05;2.97;;;;;;;;;;4984296;28;20136;-68
2022/06/14 07:31:36;;;;;;;16.70;4.07;;;;;;;;;;5000050;28;20518;-68
2022/06/14 07:34:03;;;;;;;25.88;6.60;;;;;;;;;;4998306;28;20058;-68
2022/06/14 07:36:49;;;;;;;9.93;3.40;;;;;;;;;;4996471;28;20058;-69
2022/06/14 07:39:21;;;;;;;59.90;14.82;;;;;;;;;;4973578;28;20085;-69
2022/06/14 07:42:05;;;;;;;10.98;2.53;;;;;;;;;;5008739;28;20053;-68
2022/06/14 07:44:35;;;;;;;9.57;2.80;;;;;;;;;;4990563;28;20465;-68
2022/06/14 07:47:07;;;;;;;9.18;2.67;;;;;;;;;;5004530;28;20046;-69
2022/06/14 07:49:42;;;;;;;6.35;2.20;;;;;;;;;;5008536;28;20086;-68
2022/06/14 07:52:14;;;;;;;10.43;2.85;;;;;;;;;;4992824;28;20046;-68
2022/06/14 07:54:43;;;;;;;5.93;2.40;;;;;;;;;;5008441;28;20053;-67
2022/06/14 07:57:12;;;;;;;8.07;2.42;;;;;;;;;;4995817;28;20104;-67
2022/06/14 07:59:41;;;;;;;7.13;2.20;;;;;;;;;;4987205;28;20050;-68
2022/06/14 08:02:24;;;;;;;22.50;6.40;;;;;;;;;;5022529;28;20390;-68
2022/06/14 08:04:55;;;;;;;6.95;2.10;;;;;;;;;;5070321;28;20055;-69
2022/06/14 08:07:21;;;;;;;4.85;2.03;;;;;;;;;;5060657;28;20045;-68
2022/06/14 08:09:53;;;;;;;8.32;2.00;;;;;;;;;;5051263;28;20037;-68
2022/06/14 08:12:23;;;;;;;5.68;2.00;;;;;;;;;;5051229;28;20137;-68
2022/06/14 08:15:15;;;;;;;7.20;1.90;;;;;;;;;;5032939;28;20124;-68
2022/06/14 08:17:47;;;;;;;6.13;2.15;;;;;;;;;;5029713;28;20060;-68
2022/06/14 08:20:26;;;;;;;7.00;2.15;;;;;;;;;;5052379;28;20080;-68
2022/06/14 08:22:52;;;;;;;;;;;;;;;;;;5070816;28;20545;-68
2022/06/14 08:25:21;;;;;;;6.45;1.80;;;;;;;;;;5052316;28;19920;-68
2022/06/14 08:27:47;;;;;;;;;;;;;;;;;;5051472;28;20296;-68
2022/06/14 08:30:15;;;;;;;5.47;1.70;;;;;;;;;;5067041;28;20262;-68
2022/06/14 08:32:48;;;;;;;4.90;1.80;;;;;;;;;;5032619;28;20555;-68
2022/06/14 08:35:14;;;;;;;9.55;2.38;;;;;;;;;;5033185;28;20110;-68
2022/06/14 08:37:45;;;;;;;6.82;1.98;;;;;;;;;;5050568;28;20481;-69
2022/06/14 08:40:13;;;;;;;13.43;3.58;;;;;;;;;;5050973;28;20048;-67
2022/06/14 08:42:39;;;;;;;;;;;;;;;;;;5032691;28;20044;-67
2022/06/14 08:45:17;;;;;;;6.10;2.15;;;;;;;;;;5050761;28;19974;-68
2022/06/14 08:48:03;;;;;;;6.93;2.00;;;;;;;;;;5050354;28;20041;-68
2022/06/14 08:50:56;;;;;;;6.90;1.95;;;;;;;;;;5046565;28;20044;-67
2022/06/14 08:53:22;;;;;;;5.28;1.60;;;;;;;;;;5069872;28;20044;-68
2022/06/14 08:55:58;;;;;;;6.55;1.95;;;;;;;;;;5051312;28;20121;-68
2022/06/14 08:58:43;;;;;;;5.13;1.42;;;;;;;;;;5069939;28;20507;-68
2022/06/14 09:01:17;;;;;;;18.45;4.63;;;;;;;;;;5069493;28;20047;-68
2022/06/14 09:04:01;;;;;;;4.75;1.58;;;;;;;;;;5069444;28;20052;-68
2022/06/14 09:06:40;;;;;;;6.55;1.92;;;;;;;;;;5051366;28;20473;-69
2022/06/14 09:09:29;;;;;;;4.47;1.33;;;;;;;;;;5069088;28;20484;-69
2022/06/14 09:12:02;;;;;;;22.42;6.07;;;;;;;;;;5060101;28;20048;-68
2022/06/14 09:14:44;;;;;;;13.30;3.38;;;;;;;;;;5051004;28;20053;-67
2022/06/14 09:17:28;;;;;;;10.48;2.30;;;;;;;;;;5069221;28;20124;-67
2022/06/14 09:20:05;;;;;;;6.05;1.50;;;;;;;;;;5069101;28;20055;-68
2022/06/14 09:22:43;;;;;;;7.30;1.77;;;;;;;;;;5068826;28;20083;-68
2022/06/14 09:25:19;;;;;;;5.90;1.67;;;;;;;;;;5050843;28;20087;-68
2022/06/14 09:27:54;;;;;;;4.82;1.40;;;;;;;;;;5033220;28;20048;-68
2022/06/14 09:30:20;;;;;;;5.82;1.77;;;;;;;;;;5051175;28;20051;-68
2022/06/14 09:33:10;;;;;;;2.47;1.05;;;;;;;;;;5068574;28;20135;-68
2022/06/14 09:35:39;;;;;;;4.47;1.23;;;;;;;;;;5068775;28;20040;-69
2022/06/14 09:38:05;;;;;;;;;;;;;;;;;;5051644;28;20048;-69
2022/06/14 09:40:48;;;;;;;4.25;1.30;;;;;;;;;;5050158;28;19916;-68
2022/06/14 09:43:31;;;;;;;4.13;1.40;;;;;;;;;;5069235;28;20480;-68
2022/06/14 09:46:17;;;;;;;3.10;1.25;;;;;;;;;;5051129;28;20127;-68
2022/06/14 09:49:04;;;;;;;4.82;1.40;;;;;;;;;;5040406;28;20447;-67
2022/06/14 09:51:33;;;;;;;5.93;2.17;;;;;;;;;;5040357;28;20053;-68
2022/06/14 09:54:05;;;;;;;4.10;1.35;;;;;;;;;;5050300;28;20053;-69
2022/06/14 09:56:53;;;;;;;8.05;2.40;;;;;;;;;;5046318;28;20051;-68
2022/06/14 09:59:22;;;;;;;5.47;1.95;;;;;;;;;;5059204;28;20079;-69
2022/06/14 10:02:07;;;;;;;7.00;1.60;;;;;;;;;;5057703;28;20057;-68
2022/06/14 10:04:48;;;;;;;7.47;2.22;;;;;;;;;;5031537;28;20490;-68
2022/06/14 10:07:14;;;;;;;8.68;3.13;;;;;;;;;;5053967;28;20055;-69
2022/06/14 10:09:59;;;;;;;6.85;2.05;;;;;;;;;;5040278;28;20049;-68
2022/06/14 10:12:34;;;;;;;6.55;2.00;;;;;;;;;;5059253;28;20123;-68
2022/06/14 10:15:13;;;;;;;6.75;1.88;;;;;;;;;;5041337;28;20041;-68
2022/06/14 10:17:45;;;;;;;5.70;1.90;;;;;;;;;;5037133;28;20503;-68
2022/06/14 10:20:13;;;;;;;12.00;2.85;;;;;;;;;;5060260;28;20631;-68
2022/06/14 10:22:42;;;;;;;3.75;1.55;;;;;;;;;;5042142;28;20110;-68
2022/06/14 10:25:11;;;;;;;4.13;1.52;;;;;;;;;;5036026;28;20128;-68
2022/06/14 10:30:36;;;;;;;12.80;3.92;;;;;;;;;;5049203;28;20509;-69
2022/06/14 10:33:10;;;;;;;11.15;3.03;;;;;;;;;;5031326;28;20052;-69
2022/06/14 10:35:50;;;;;;;4.10;1.45;;;;;;;;;;5031062;28;20080;-68
2022/06/14 10:38:16;;;;;;;6.35;1.75;;;;;;;;;;5030825;28;20049;-68
2022/06/14 10:40:42;;;;;;;4.50;1.38;;;;;;;;;;5052793;28;20048;-68
2022/06/14 10:43:08;;;;;;;4.20;1.10;;;;;;;;;;5053243;28;20367;-68
2022/06/14 10:45:48;;;;;;;4.47;1.10;;;;;;;;;;5019394;28;20509;-67
2022/06/14 10:48:34;;;;;;;5.05;1.40;;;;;;;;;;5053434;28;20060;-68
2022/06/14 10:51:09;;;;;;;3.33;1.00;;;;;;;;;;4990317;28;20056;-69
2022/06/14 10:53:35;;;;;;;4.43;1.20;;;;;;;;;;5034023;28;20052;-68
2022/06/14 10:56:08;;;;;;;6.82;1.60;;;;;;;;;;5052903;28;20044;-69
2022/06/14 10:58:52;;;;;;;4.25;1.45;;;;;;;;;;5052609;28;20122;-68
2022/06/14 11:01:27;;;;;;;5.60;1.40;;;;;;;;;;5052614;28;20101;-68
2022/06/14 11:03:59;;;;;;;7.47;1.20;;;;;;;;;;5034733;28;20055;-68
2022/06/14 11:06:28;;;;;;;4.50;1.40;;;;;;;;;;5034629;28;20045;-68
2022/06/14 11:08:58;;;;;;;4.40;1.42;;;;;;;;;;5071874;28;20442;-68
2022/06/14 11:11:27;;;;;;;3.97;1.25;;;;;;;;;;5053424;28;20080;-69
2022/06/14 11:13:59;;;;;;;4.10;1.25;;;;;;;;;;5053714;28;20227;-69
2022/06/14 11:16:39;;;;;;;4.35;1.40;;;;;;;;;;5053647;28;20044;-68
2022/06/14 11:19:36;;;;;;;6.35;1.27;;;;;;;;;;5053630;28;20050;-68
2022/06/14 11:22:21;;;;;;;3.78;1.25;;;;;;;;;;5052290;28;20097;-68
2022/06/14 11:25:06;;;;;;;3.28;1.27;;;;;;;;;;5071086;28;20056;-68
2022/06/14 11:27:50;;;;;;;1.95;1.35;;;;;;;;;;5053015;28;20052;-68
2022/06/14 11:30:35;;;;;;;3.60;1.30;;;;;;;;;;5053175;28;20060;-69
2022/06/14 11:33:16;;;;;;;4.18;1.42;;;;;;;;;;5071413;28;20041;-68
2022/06/14 11:35:45;;;;;;;3.75;1.30;;;;;;;;;;5052402;28;20123;-68
2022/06/14 11:38:35;;;;;;;2.97;1.15;;;;;;;;;;5064428;28;20048;-68
2022/06/14 11:41:05;;;;;;;7.45;2.05;;;;;;;;;;5041510;28;20049;-67
2022/06/14 11:43:43;;;;;;;5.10;1.48;;;;;;;;;;5033909;28;20049;-67
2022/06/14 11:46:14;;;;;;;3.83;1.20;;;;;;;;;;5052027;28;20045;-68
2022/06/14 11:48:43;;;;;;;3.75;1.10;;;;;;;;;;5033891;28;20056;-68
2022/06/14 11:51:23;;;;;;;3.47;1.40;;;;;;;;;;5060154;28;20055;-68
2022/06/14 11:54:09;;;;;;;2.15;1.20;;;;;;;;;;5033760;28;20080;-68
2022/06/14 11:56:41;;;;;;;4.70;1.20;;;;;;;;;;5065793;28;20052;-68
2022/06/14 11:59:27;;;;;;;5.18;1.50;;;;;;;;;;5070767;28;20044;-68
2022/06/14 12:02:02;;;;;;;2.92;1.20;;;;;;;;;;5070884;28;20041;-68
2022/06/14 12:04:34;;;;;;;2.97;1.00;;;;;;;;;;5051910;28;20052;-68
2022/06/14 12:07:03;;;;;;;2.97;1.00;;;;;;;;;;5052639;28;20052;-68
2022/06/14 12:09:57;;;;;;;3.95;1.30;;;;;;;;;;5052498;28;20070;-68
2022/06/14 12:12:23;;;;;;;4.07;1.20;;;;;;;;;;5052207;28;20036;-69
2022/06/14 12:15:09;;;;;;;1.92;1.15;;;;;;;;;;5051440;28;20389;-68
2022/06/14 12:17:47;;;;;;;2.85;1.08;;;;;;;;;;5069984;28;20468;-68
2022/06/14 12:20:16;;;;;;;3.67;1.02;;;;;;;;;;5051533;28;20044;-68
2022/06/14 12:22:54;;;;;;;2.55;1.08;;;;;;;;;;5069931;28;20094;-69
2022/06/14 12:28:13;;;;;;;3.25;1.08;;;;;;;;;;5069985;28;20056;-68
2022/06/14 12:30:41;;;;;;;3.47;1.40;;;;;;;;;;5051925;28;20389;-69
2022/06/14 12:33:10;;;;;;;4.40;1.27;;;;;;;;;;5052274;28;20125;-68
2022/06/14 12:35:41;;;;;;;3.08;1.00;;;;;;;;;;5051347;28;20122;-68
2022/06/14 12:38:18;;;;;;;2.88;1.33;;;;;;;;;;5045887;28;20059;-69
2022/06/14 12:40:50;;;;;;;2.53;1.10;;;;;;;;;;5064274;28;20125;-68
2022/06/14 12:43:22;;;;;;;2.72;1.30;;;;;;;;;;5052012;28;20074;-69
2022/06/14 12:45:48;;;;;;;3.80;0.93;;;;;;;;;;5069415;28;20553;-68
2022/06/14 12:48:33;;;;;;;3.97;1.23;;;;;;;;;;5034184;28;20068;-68
2022/06/14 12:51:05;;;;;;;5.40;1.10;;;;;;;;;;5051591;28;20438;-69
2022/06/14 12:53:41;;;;;;;3.97;1.20;;;;;;;;;;5051671;28;20067;-68
2022/06/14 12:56:29;;;;;;;2.20;1.10;;;;;;;;;;5069691;28;20129;-68
2022/06/14 12:59:10;;;;;;;5.30;2.00;;;;;;;;;;5051550;28;20041;-68
2022/06/14 13:01:47;;;;;;;4.80;1.52;;;;;;;;;;5051511;28;20060;-69
2022/06/14 13:04:19;;;;;;;3.97;1.45;;;;;;;;;;5051319;28;20051;-68
2022/06/14 13:06:53;;;;;;;1.77;1.00;;;;;;;;;;5068934;28;20094;-68
2022/06/14 13:09:26;;;;;;;3.15;1.00;;;;;;;;;;5069533;28;20052;-68
2022/06/14 13:11:53;;;;;;;2.67;0.90;;;;;;;;;;5069482;28;20048;-70
2022/06/14 13:14:28;;;;;;;2.78;1.25;;;;;;;;;;5069175;28;20143;-69
2022/06/14 13:17:00;;;;;;;5.18;1.27;;;;;;;;;;5036480;28;20048;-68
2022/06/14 13:19:34;;;;;;;3.55;1.40;;;;;;;;;;5032150;28;20436;-69
2022/06/14 13:22:08;;;;;;;2.70;1.20;;;;;;;;;;5032086;28;20095;-68
2022/06/14 13:24:36;;;;;;;2.70;1.27;;;;;;;;;;5031728;28;20041;-68
2022/06/14 13:27:17;;;;;;;3.33;1.40;;;;;;;;;;5050106;28;20093;-68
2022/06/14 13:29:43;;;;;;;3.25;1.13;;;;;;;;;;5049363;28;20053;-68
2022/06/14 13:32:29;;;;;;;3.08;1.23;;;;;;;;;;5031702;28;20124;-69
2022/06/14 13:34:55;;;;;;;3.50;1.27;;;;;;;;;;5064853;28;20052;-68
2022/06/14 13:37:43;;;;;;;4.20;1.05;;;;;;;;;;5051310;28;20129;-68
2022/06/14 13:40:23;;;;;;;3.50;1.10;;;;;;;;;;5069314;28;20075;-68
2022/06/14 13:42:49;;;;;;;2.35;1.10;;;;;;;;;;5050871;28;20295;-68
2022/06/14 13:45:18;;;;;;;2.83;1.10;;;;;;;;;;5035699;28;20052;-68
2022/06/14 13:47:46;;;;;;;2.92;0.98;;;;;;;;;;5031050;28;20604;-68
2022/06/14 13:50:24;;;;;;;6.22;2.08;;;;;;;;;;5050036;28;20053;-68
2022/06/14 13:52:56;;;;;;;5.60;2.08;;;;;;;;;;5044954;28;20091;-68
2022/06/14 13:55:22;;;;;;;3.28;1.23;;;;;;;;;;5051225;28;20048;-68
2022/06/14 13:57:59;;;;;;;3.05;1.38;;;;;;;;;;5068616;28;20225;-68
2022/06/14 14:00:32;;;;;;;3.42;1.17;;;;;;;;;;5050367;28;20048;-69
2022/06/14 14:03:13;;;;;;;3.17;1.20;;;;;;;;;;5068629;28;20555;-69
2022/06/14 14:05:55;;;;;;;5.68;1.80;;;;;;;;;;5050246;28;20044;-69
2022/06/14 14:08:36;;;;;;;23.33;6.60;;;;;;;;;;5068947;28;20045;-69
2022/06/14 14:11:08;;;;;;;1.85;0.93;;;;;;;;;;5049587;28;20052;-70
2022/06/14 14:13:41;;;;;;;8.95;2.60;;;;;;;;;;5031781;28;20226;-70
2022/06/14 14:16:11;;;;;;;5.18;1.65;;;;;;;;;;5052835;28;20493;-70
2022/06/14 14:18:37;;;;;;;3.38;0.82;;;;;;;;;;5053293;28;20051;-71
2022/06/14 14:21:03;;;;;;;6.57;2.50;;;;;;;;;;5053467;28;20404;-71
2022/06/14 14:23:47;;;;;;;9.75;2.28;;;;;;;;;;5035235;28;20053;-71
2022/06/14 14:26:20;;;;;;;11.43;6.13;;;;;;;;;;5035729;28;20052;-69
2022/06/14 14:28:50;;;;;;;2.00;0.85;;;;;;;;;;5035793;28;20354;-70
2022/06/14 14:31:28;;;;;;;4.75;2.28;;;;;;;;;;5051848;28;20045;-67
2022/06/14 14:33:57;;;;;;;6.15;1.75;;;;;;;;;;5070314;28;20049;-67
2022/06/14 14:36:47;;;;;;;4.85;1.67;;;;;;;;;;5039837;28;20045;-67
2022/06/14 14:39:19;;;;;;;2.55;0.90;;;;;;;;;;5051014;28;20394;-69
2022/06/14 14:41:54;;;;;;;8.55;1.30;;;;;;;;;;5053007;28;20106;-69
2022/06/14 14:44:25;;;;;;;2.72;0.80;;;;;;;;;;5052597;28;20052;-69
2022/06/14 14:47:05;;;;;;;2.83;0.90;;;;;;;;;;5052936;28;20052;-68
2022/06/14 14:49:49;;;;;;;3.40;1.10;;;;;;;;;;5066290;28;20048;-70
2022/06/14 14:52:23;;;;;;;2.53;0.90;;;;;;;;;;5054053;28;20068;-70
2022/06/14 14:55:20;;;;;;;26.35;6.07;;;;;;;;;;5058504;28;20129;-69
2022/06/14 14:57:51;;;;;;;8.82;3.45;;;;;;;;;;5052307;28;20098;-68
2022/06/14 15:06:28;;;;;;;6.88;2.15;;;;;;;;;;5053448;28;20052;-69
2022/06/14 15:09:01;;;;;;;5.00;1.75;;;;;;;;;;5053754;28;20554;-69
2022/06/14 15:11:28;;;;;;;5.70;2.58;;;;;;;;;;5071306;28;20525;-68
2022/06/14 15:13:59;;;;;;;2.97;1.40;;;;;;;;;;5071058;28;20044;-68
2022/06/14 15:16:29;;;;;;;2.55;1.27;;;;;;;;;;5071668;28;20781;-68
2022/06/14 15:21:51;;;;;;;2.85;1.13;;;;;;;;;;5053165;28;20234;-68
2022/06/14 15:24:20;;;;;;;2.80;0.93;;;;;;;;;;5053548;28;20053;-68
2022/06/14 15:26:48;;;;;;;2.80;0.90;;;;;;;;;;5056818;28;20049;-68
2022/06/14 15:29:25;;;;;;;2.22;1.27;;;;;;;;;;5046625;28;20232;-68
2022/06/14 15:31:56;;;;;;;3.92;1.55;;;;;;;;;;5053332;28;20560;-69
2022/06/14 15:34:31;;;;;;;3.97;1.27;;;;;;;;;;5053037;28;20357;-68